Terminal Aerodrome Forecast
Issued by NWS

Home | Current Version | Previous Version | Text Only | Print | Product List | Glossary On
Versions: 1 2 3 4 5 6 7 8 9 10 11 12 13 14 15
000
FTUS46 KMTR 240700 AAA
TAFSNS
TAF AMD
KSNS 240714Z 2407/2506 26003KT P6SM SKC
      TEMPO 2414/2418 29008KT P6SM BKN015
     FM241800 27011G18KT P6SM SCT200
     FM250300 26010KT P6SM OVC025=

USA.gov is the U.S. government's official web portal to all federal, state and local government web resources and services.